Airfield :
LOGIN :

Register | Disclaimer

   EN    FR    IT 

 










Legend :    VFR   Marginal VFR   IFR   Intensive IFR   Very Intensive IFR
Visi :
Ceiling :
>= 8 km
>= 3000ft
5 to 8 km
1000 to 3000 ft
1500m to 5 km
500 to 1000 ft
800 to 1500m
200 to 500 ft
< 800m
< 200 ft
Symbols :   Thunderstorms  Fog  Heavy snow  Heavy precipitations  Wind > 20 kt
SIGMETs :     Misc.  Thunderstorms  Icing  Turbulence  Mountain Waves  Volcanic Ashes







- Airport Elevation : 40 ft
- IATA code : RMI


LIPR - Federico Fellini Int. Rimini

CURRENT METAR :
  • 262120Z AUTO 09008KT 9999 -RA BKN011/// 16/15 Q1012

EXPIRED METARs :
  • 262050Z 10008KT 5000 -RA BR SCT010 BKN040 16/15 Q1012
  • 262020Z 09009KT 5000 -RA BR BKN010 SCT020 16/15 Q1012
  • 261950Z 09006KT 060V130 5000 -RA BR SCT010 BKN030 16/15 Q1012 RERA
  • 261920Z 10008KT 5000 RA BR SCT010 BKN020 16/15 Q1011
  • 261850Z 09011KT 5000 -RA SCT005 BKN020 16/16 Q1011

TAF TAF LIPR
Valid from the 26 at 21:00 until the 27 at 06:00 UTC


262000Z 2621/2706 10010KT 5000 RA BR SCT010 BKN020
No reported NOTAMs for that airfield.



MET'MAP, your aeronautical weather chart ! - Copyright ORBIFLY December 2007 - Disclaimer

ORBIFLY MET'MAP TEAM :

Programming & Development : Alexandra Zaïnal
Concept & Development : Baudouin d'Aumeries
Co-Development & Prog : Marc-Olivier Méhu
Technical & hardware support : Manuel Goepfert

Contact : metmap@orbifly.com




SOURCES & CREDITS :

   NOAA